AirNav   Everest Fuels
 
 562 users online  

78NC Fuquay/Angier Field Airport
Fuquay/Varina, North Carolina, USA

GOING TO FUQUAY/VARINA?


FAA INFORMATION EFFECTIVE 28 FEBRUARY 2019

Location

FAA Identifier: 78NC
Lat/Long: 35-32-39.5720N / 078-44-51.0480W
35-32.659533N / 078-44.850800W
35.5443256 / -78.7475133
(estimated)
Elevation: 349 ft. / 106.4 m (surveyed)
Variation: 07W (1985)
From city: 3 miles SE of central business district of the associated city
Time zone: UTC -5 (UTC -4 during Daylight Saving Time)
Zip code: 27526

Airport Operations

Airport use: Private use. Permission required prior to landing
Activation date: 09/1966
Control tower: no
ARTCC: WASHINGTON CENTER
FSS: RALEIGH FLIGHT SERVICE STATION
Attendance: UNATNDD
Wind indicator: yes
Segmented circle: no
Lights: ACTVT LIRL RY 14/32 - 122.800.
Beacon: white-green (lighted land airport)
ACTVT ROTG BCN - 122.800.

Airport Communications

UNICOM: 122.8
WX AWOS-3 at HRJ (10 nm S): 119.025 (910-814-3946)
WX AWOS-3 at TTA (17 nm W): 120.625 (919-708-5382)
WX AWOS-3 at JNX (17 nm E): 120.225 (919-934-3851)
  • UNICOM OPERS ONLY DURG HOURS OF ATTENDANCE.

Nearby radio navigation aids

VOR radial/distance  VOR name  Freq  Var
RDUr184/19.8RALEIGH/DURHAM VORTAC117.2009W
FAYr015/34.1FAYETTEVILLE VOR/DME108.8004W

 
NDB name  Hdg/Dist  Freq  Var  ID
HARNETT340/7.641708WHQT .... --.- -
POPE035/21.633807WPOB .--. --- -...
FORT BRAGG014/24.539307WFGP ..-. --. .--.
CLINTON340/39.041209WCTZ -.-. - --..

Airport Services

Fuel available: 100LL
Parking: tiedowns
Airframe service: NONE
Powerplant service: NONE
Bottled oxygen: NONE
Bulk oxygen: NONE

Runway Information

Runway 14/32

Dimensions: 2780 x 90 ft. / 847 x 27 m
Surface: turf, in good condition
Runway edge lights: low intensity
NON-STD RWY LGTS; NO LGTS SE 800' RIGHT SIDE; THRS MARKED BY PAIR RED LGTS.
RUNWAY 14  RUNWAY 32
Gradient: 0.3%0.3%
Traffic pattern: leftleft
Markings: nonenone
Obstructions: 15 ft. road, 100 ft. right of centerline
SECONDARY OBSTRUCTION ARE TREES; APCH RATIO FROM TREES IS 8:1.
15 ft. road
SECONDARY OBSTRUCTION ARE TREES; APCH RATIO FROM TREES IS 6:1.

Airport Ownership and Management from official FAA records

Ownership: Privately-owned
Owner: KENNEBEC FLYING CLUB
8312 MAUDE STEWART ROAD
FUQUAY VARINA, NC 27526-7856
Phone 919-639-0806
Manager: PRESIDENT, KENNEBEC FLYING CLUB
8312 MAUDE STEWART ROAD
FUQUAY VARINA, NC 27526-7856
Phone 919-639-0806
PRES, KENNEBEC FLYING CLUB.

Airport Operational Statistics

Aircraft based on the field: 30
Single engine airplanes: 30
    
Aircraft operations: avg 20/week *
98% local general aviation
2% transient general aviation
* for 12-month period ending 14 July 1986

Additional Remarks

SLIGHT DOGLEG TO LEFT WHEN LNDG RWY 14-900' PAST THR.
FLIGHT TRAINING AND COMMERICAL OPERATIONS WITH PRIOR APPROVAL ONLY.

Instrument Procedures

There are no published instrument procedures at 78NC.

Some nearby airports with instrument procedures:

KHRJ - Harnett Regional Jetport Airport (10 nm S)
KTTA - Raleigh Executive Jetport at Sanford-Lee County Airport (17 nm W)
KJNX - Johnston Regional Airport (17 nm E)
KRDU - Raleigh-Durham International Airport (20 nm N)
KPOB - Pope Army Airfield (26 nm SW)
 
Loc | Ops | Rwys | IFR | FBO | Links
Com | Nav | Svcs | Stats | Notes
Area around 78NC (Fuquay/Angier Field Airport)
 
Road maps at: MapQuest Bing Google
 
Aerial photo
WARNING: Photo may not be current or correct
Aerial photo of 78NC (Fuquay/Angier Field Airport)
Do you have a better or more recent aerial photo of Fuquay/Angier Field Airport that you would like to share? If so, please send us your photo.

 
Sectional chart

 
Airport distance calculator
Flying to Fuquay/Angier Field Airport? Find the distance to fly.

From to 78NC

Sunrise and sunset
Times for 24-Mar-2019
 Local
(UTC-4)
 Zulu
(UTC)
Morning civil twilight06:4910:49
Sunrise07:1411:14
Sunset19:2923:29
Evening civil twilight19:5423:54

Current date and time
Zulu (UTC)  24-Mar-2019 04:12:44
Local (UTC-4)  24-Mar-2019 00:12:44
 
METAR
KHRJ 
10nm S 
240340Z AUTO 00000KT 10SM CLR 05/02 A3030 RMK AO2 T00490015
KTTA 
17nm W 
240350Z AUTO 19003KT 10SM CLR 02/00 A3030 RMK AO2 T00160002
KJNX 
18nm E 
240345Z AUTO 00000KT 10SM CLR 03/01 A3029 RMK AO2
KRDU 
19nm N 
240351Z 00000KT 10SM CLR 04/M02 A3029 RMK AO2 SLP258 T00391017
TAF
KRDU 
19nm N 
231733Z 2318/2418 28010G20KT P6SM SKC FM232300 00000KT P6SM SKC
NOTAMs
Click for the latest NOTAMs
NOTAMs are issued by the DoD/FAA and will open in a separate window not controlled by AirNav.

 

 
 

Aviation Businesses, Services, and Facilities

  
 Business Name 
 
 Contact 
 
 Services / Description 
 
Distance
 
Comments
  
Kennebec Flying Club 919-639-0806
919-639-8836
[email]
Airport management, Flying club

More info about Kennebec Flying Club
on airport  
   write
 

Would you like to see your business listed on this page?

 If your business provides an interesting product or service to pilots, flight crews, aircraft, or users of the Fuquay/Angier Field Airport, you should consider listing it here.  To start the listing process, click on the button below
 
Add a business
 

Other Pages about Fuquay/Angier Field Airport

Update a link
 
Copyright © AirNav, LLC. All rights reserved. Privacy Policy  Contact